sensor_id;sensor_type;location;lat;lon;timestamp;P1;durP1;ratioP1;P2;durP2;ratioP2
17422;SDS011;8829;47.932;7.810;2023-02-28T00:00:36;2.77;;;2.57;;
17422;SDS011;8829;47.932;7.810;2023-02-28T00:03:04;2.67;;;2.47;;
17422;SDS011;8829;47.932;7.810;2023-02-28T00:05:31;2.50;;;2.40;;
17422;SDS011;8829;47.932;7.810;2023-02-28T00:07:58;2.83;;;2.63;;
17422;SDS011;8829;47.932;7.810;2023-02-28T00:10:26;3.30;;;3.00;;
17422;SDS011;8829;47.932;7.810;2023-02-28T00:12:58;2.97;;;2.77;;
17422;SDS011;8829;47.932;7.810;2023-02-28T00:15:26;4.57;;;2.60;;
17422;SDS011;8829;47.932;7.810;2023-02-28T00:17:53;2.53;;;2.43;;
17422;SDS011;8829;47.932;7.810;2023-02-28T00:20:20;3.20;;;2.93;;
17422;SDS011;8829;47.932;7.810;2023-02-28T00:22:47;3.73;;;2.80;;
17422;SDS011;8829;47.932;7.810;2023-02-28T00:25:16;3.43;;;2.80;;
17422;SDS011;8829;47.932;7.810;2023-02-28T00:27:45;2.57;;;2.37;;
17422;SDS011;8829;47.932;7.810;2023-02-28T00:30:14;2.77;;;2.57;;
17422;SDS011;8829;47.932;7.810;2023-02-28T00:32:42;3.17;;;2.97;;
17422;SDS011;8829;47.932;7.810;2023-02-28T00:35:10;3.23;;;2.57;;
17422;SDS011;8829;47.932;7.810;2023-02-28T00:40:10;2.80;;;2.60;;
17422;SDS011;8829;47.932;7.810;2023-02-28T00:42:38;2.80;;;2.60;;
17422;SDS011;8829;47.932;7.810;2023-02-28T00:45:06;2.93;;;2.73;;
17422;SDS011;8829;47.932;7.810;2023-02-28T00:47:34;2.80;;;2.60;;
17422;SDS011;8829;47.932;7.810;2023-02-28T00:50:02;2.70;;;2.50;;
17422;SDS011;8829;47.932;7.810;2023-02-28T00:52:29;2.57;;;2.37;;
17422;SDS011;8829;47.932;7.810;2023-02-28T00:54:56;2.87;;;2.60;;
17422;SDS011;8829;47.932;7.810;2023-02-28T00:57:22;2.73;;;2.53;;
17422;SDS011;8829;47.932;7.810;2023-02-28T00:59:49;2.93;;;2.73;;
17422;SDS011;8829;47.932;7.810;2023-02-28T01:02:16;3.33;;;3.03;;
17422;SDS011;8829;47.932;7.810;2023-02-28T01:04:46;2.97;;;2.77;;
17422;SDS011;8829;47.932;7.810;2023-02-28T01:07:13;2.60;;;2.40;;
17422;SDS011;8829;47.932;7.810;2023-02-28T01:09:40;4.10;;;3.70;;
17422;SDS011;8829;47.932;7.810;2023-02-28T01:12:06;4.33;;;3.47;;
17422;SDS011;8829;47.932;7.810;2023-02-28T01:14:34;2.70;;;2.50;;
17422;SDS011;8829;47.932;7.810;2023-02-28T01:17:01;3.13;;;2.87;;
17422;SDS011;8829;47.932;7.810;2023-02-28T01:19:27;3.10;;;2.90;;
17422;SDS011;8829;47.932;7.810;2023-02-28T01:21:55;2.90;;;2.70;;
17422;SDS011;8829;47.932;7.810;2023-02-28T01:24:22;3.07;;;2.83;;
17422;SDS011;8829;47.932;7.810;2023-02-28T01:26:49;2.90;;;2.70;;
17422;SDS011;8829;47.932;7.810;2023-02-28T01:29:15;3.17;;;2.97;;
17422;SDS011;8829;47.932;7.810;2023-02-28T01:31:42;3.00;;;2.80;;
17422;SDS011;8829;47.932;7.810;2023-02-28T01:34:09;3.50;;;3.17;;
17422;SDS011;8829;47.932;7.810;2023-02-28T01:36:36;3.00;;;2.77;;
17422;SDS011;8829;47.932;7.810;2023-02-28T01:39:04;2.97;;;2.67;;
17422;SDS011;8829;47.932;7.810;2023-02-28T01:41:31;3.27;;;2.93;;
17422;SDS011;8829;47.932;7.810;2023-02-28T01:44:01;3.00;;;2.70;;
17422;SDS011;8829;47.932;7.810;2023-02-28T01:46:30;3.03;;;2.80;;
17422;SDS011;8829;47.932;7.810;2023-02-28T01:49:00;2.60;;;2.40;;
17422;SDS011;8829;47.932;7.810;2023-02-28T01:51:32;3.47;;;3.17;;
17422;SDS011;8829;47.932;7.810;2023-02-28T01:54:07;3.10;;;2.80;;
17422;SDS011;8829;47.932;7.810;2023-02-28T01:56:38;3.87;;;2.70;;
17422;SDS011;8829;47.932;7.810;2023-02-28T01:59:10;2.83;;;2.63;;
17422;SDS011;8829;47.932;7.810;2023-02-28T02:01:40;3.10;;;2.60;;
17422;SDS011;8829;47.932;7.810;2023-02-28T02:04:07;3.30;;;3.00;;
17422;SDS011;8829;47.932;7.810;2023-02-28T02:06:34;3.33;;;3.03;;
17422;SDS011;8829;47.932;7.810;2023-02-28T02:09:05;3.27;;;2.70;;
17422;SDS011;8829;47.932;7.810;2023-02-28T02:11:32;4.10;;;3.63;;
17422;SDS011;8829;47.932;7.810;2023-02-28T02:14:07;2.97;;;2.73;;
17422;SDS011;8829;47.932;7.810;2023-02-28T02:16:59;3.43;;;3.13;;
17422;SDS011;8829;47.932;7.810;2023-02-28T02:19:46;3.60;;;3.30;;
17422;SDS011;8829;47.932;7.810;2023-02-28T02:22:34;3.40;;;3.00;;
17422;SDS011;8829;47.932;7.810;2023-02-28T02:25:19;3.43;;;3.13;;
17422;SDS011;8829;47.932;7.810;2023-02-28T02:27:58;4.10;;;3.90;;
17422;SDS011;8829;47.932;7.810;2023-02-28T02:30:45;4.33;;;3.23;;
17422;SDS011;8829;47.932;7.810;2023-02-28T02:33:32;3.10;;;2.90;;
17422;SDS011;8829;47.932;7.810;2023-02-28T02:36:13;3.17;;;2.87;;
17422;SDS011;8829;47.932;7.810;2023-02-28T02:38:49;2.90;;;2.70;;
17422;SDS011;8829;47.932;7.810;2023-02-28T02:41:19;3.33;;;3.07;;
17422;SDS011;8829;47.932;7.810;2023-02-28T02:43:51;3.13;;;2.83;;
17422;SDS011;8829;47.932;7.810;2023-02-28T02:46:21;4.23;;;3.10;;
17422;SDS011;8829;47.932;7.810;2023-02-28T02:48:52;3.43;;;2.90;;
17422;SDS011;8829;47.932;7.810;2023-02-28T02:51:23;3.50;;;3.20;;
17422;SDS011;8829;47.932;7.810;2023-02-28T02:53:53;3.80;;;3.17;;
17422;SDS011;8829;47.932;7.810;2023-02-28T02:56:23;4.07;;;3.07;;
17422;SDS011;8829;47.932;7.810;2023-02-28T02:58:52;3.27;;;3.00;;
17422;SDS011;8829;47.932;7.810;2023-02-28T03:01:23;3.40;;;3.10;;
17422;SDS011;8829;47.932;7.810;2023-02-28T03:03:54;3.37;;;3.07;;
17422;SDS011;8829;47.932;7.810;2023-02-28T03:06:24;3.37;;;3.17;;
17422;SDS011;8829;47.932;7.810;2023-02-28T03:08:51;3.60;;;3.23;;
17422;SDS011;8829;47.932;7.810;2023-02-28T03:11:18;3.23;;;3.00;;
17422;SDS011;8829;47.932;7.810;2023-02-28T03:16:57;4.93;;;3.10;;
17422;SDS011;8829;47.932;7.810;2023-02-28T03:19:41;4.47;;;3.03;;
17422;SDS011;8829;47.932;7.810;2023-02-28T03:22:22;3.00;;;2.80;;
17422;SDS011;8829;47.932;7.810;2023-02-28T03:25:02;2.60;;;2.47;;
17422;SDS011;8829;47.932;7.810;2023-02-28T03:27:35;3.17;;;2.97;;
17422;SDS011;8829;47.932;7.810;2023-02-28T03:30:06;3.37;;;3.17;;
17422;SDS011;8829;47.932;7.810;2023-02-28T03:32:38;2.83;;;2.73;;
17422;SDS011;8829;47.932;7.810;2023-02-28T03:35:11;3.17;;;2.90;;
17422;SDS011;8829;47.932;7.810;2023-02-28T03:37:48;3.17;;;2.97;;
17422;SDS011;8829;47.932;7.810;2023-02-28T03:40:19;3.47;;;3.20;;
17422;SDS011;8829;47.932;7.810;2023-02-28T03:42:49;3.27;;;3.07;;
17422;SDS011;8829;47.932;7.810;2023-02-28T03:45:19;3.30;;;2.80;;
17422;SDS011;8829;47.932;7.810;2023-02-28T03:47:51;2.70;;;2.50;;
17422;SDS011;8829;47.932;7.810;2023-02-28T03:50:20;2.80;;;2.60;;
17422;SDS011;8829;47.932;7.810;2023-02-28T03:52:52;3.03;;;2.83;;
17422;SDS011;8829;47.932;7.810;2023-02-28T03:55:26;3.33;;;3.03;;
17422;SDS011;8829;47.932;7.810;2023-02-28T03:57:58;3.00;;;2.80;;
17422;SDS011;8829;47.932;7.810;2023-02-28T04:00:30;3.17;;;2.87;;
17422;SDS011;8829;47.932;7.810;2023-02-28T04:03:00;3.50;;;3.30;;
17422;SDS011;8829;47.932;7.810;2023-02-28T04:05:27;3.80;;;3.50;;
17422;SDS011;8829;47.932;7.810;2023-02-28T04:08:00;3.80;;;3.53;;
17422;SDS011;8829;47.932;7.810;2023-02-28T04:10:29;3.23;;;3.03;;
17422;SDS011;8829;47.932;7.810;2023-02-28T04:12:56;3.50;;;3.20;;
17422;SDS011;8829;47.932;7.810;2023-02-28T04:15:23;3.43;;;3.13;;
17422;SDS011;8829;47.932;7.810;2023-02-28T04:17:49;3.83;;;3.53;;
17422;SDS011;8829;47.932;7.810;2023-02-28T04:20:16;4.13;;;3.73;;
17422;SDS011;8829;47.932;7.810;2023-02-28T04:22:43;3.80;;;3.50;;
17422;SDS011;8829;47.932;7.810;2023-02-28T04:25:11;3.73;;;3.43;;
17422;SDS011;8829;47.932;7.810;2023-02-28T04:27:38;4.20;;;3.80;;
17422;SDS011;8829;47.932;7.810;2023-02-28T04:30:05;4.40;;;3.90;;
17422;SDS011;8829;47.932;7.810;2023-02-28T04:32:33;4.97;;;4.03;;
17422;SDS011;8829;47.932;7.810;2023-02-28T04:37:35;4.17;;;3.77;;
17422;SDS011;8829;47.932;7.810;2023-02-28T04:40:02;6.07;;;3.93;;
17422;SDS011;8829;47.932;7.810;2023-02-28T04:42:31;4.27;;;3.93;;
17422;SDS011;8829;47.932;7.810;2023-02-28T04:45:00;4.53;;;4.13;;
17422;SDS011;8829;47.932;7.810;2023-02-28T04:47:27;4.27;;;3.90;;
17422;SDS011;8829;47.932;7.810;2023-02-28T04:49:54;4.67;;;4.17;;
17422;SDS011;8829;47.932;7.810;2023-02-28T04:52:20;4.23;;;3.93;;
17422;SDS011;8829;47.932;7.810;2023-02-28T04:54:47;4.20;;;3.90;;
17422;SDS011;8829;47.932;7.810;2023-02-28T04:57:14;4.10;;;3.67;;
17422;SDS011;8829;47.932;7.810;2023-02-28T04:59:42;4.37;;;3.97;;
17422;SDS011;8829;47.932;7.810;2023-02-28T05:02:09;4.17;;;3.87;;
17422;SDS011;8829;47.932;7.810;2023-02-28T05:04:35;4.40;;;4.00;;
17422;SDS011;8829;47.932;7.810;2023-02-28T05:07:02;4.47;;;4.07;;
17422;SDS011;8829;47.932;7.810;2023-02-28T05:09:29;4.70;;;4.13;;
17422;SDS011;8829;47.932;7.810;2023-02-28T05:11:57;4.30;;;3.93;;
17422;SDS011;8829;47.932;7.810;2023-02-28T05:14:24;3.97;;;3.57;;
17422;SDS011;8829;47.932;7.810;2023-02-28T05:16:52;6.73;;;4.47;;
17422;SDS011;8829;47.932;7.810;2023-02-28T05:19:19;4.40;;;4.00;;
17422;SDS011;8829;47.932;7.810;2023-02-28T05:21:50;4.27;;;3.87;;
17422;SDS011;8829;47.932;7.810;2023-02-28T05:24:18;4.43;;;4.10;;
17422;SDS011;8829;47.932;7.810;2023-02-28T05:26:48;4.40;;;4.00;;
17422;SDS011;8829;47.932;7.810;2023-02-28T05:29:15;5.20;;;3.90;;
17422;SDS011;8829;47.932;7.810;2023-02-28T05:31:42;4.10;;;3.70;;
17422;SDS011;8829;47.932;7.810;2023-02-28T05:34:10;6.20;;;4.13;;
17422;SDS011;8829;47.932;7.810;2023-02-28T05:36:37;4.00;;;3.53;;
17422;SDS011;8829;47.932;7.810;2023-02-28T05:39:05;4.57;;;4.23;;
17422;SDS011;8829;47.932;7.810;2023-02-28T05:41:32;3.90;;;3.60;;
17422;SDS011;8829;47.932;7.810;2023-02-28T05:43:58;4.40;;;4.00;;
17422;SDS011;8829;47.932;7.810;2023-02-28T05:46:26;4.10;;;3.80;;
17422;SDS011;8829;47.932;7.810;2023-02-28T05:48:52;4.73;;;4.33;;
17422;SDS011;8829;47.932;7.810;2023-02-28T05:51:22;3.80;;;3.57;;
17422;SDS011;8829;47.932;7.810;2023-02-28T05:53:48;4.67;;;4.27;;
17422;SDS011;8829;47.932;7.810;2023-02-28T05:56:15;7.33;;;4.50;;
17422;SDS011;8829;47.932;7.810;2023-02-28T05:58:42;5.17;;;4.37;;
17422;SDS011;8829;47.932;7.810;2023-02-28T06:01:22;4.97;;;4.53;;
17422;SDS011;8829;47.932;7.810;2023-02-28T06:03:50;4.80;;;4.40;;
17422;SDS011;8829;47.932;7.810;2023-02-28T06:06:17;5.43;;;4.70;;
17422;SDS011;8829;47.932;7.810;2023-02-28T06:08:46;5.00;;;4.50;;
17422;SDS011;8829;47.932;7.810;2023-02-28T06:11:13;4.70;;;4.40;;
17422;SDS011;8829;47.932;7.810;2023-02-28T06:13:39;5.60;;;5.10;;
17422;SDS011;8829;47.932;7.810;2023-02-28T06:16:07;6.67;;;5.47;;
17422;SDS011;8829;47.932;7.810;2023-02-28T06:18:35;5.60;;;5.07;;
17422;SDS011;8829;47.932;7.810;2023-02-28T06:21:02;5.70;;;5.03;;
17422;SDS011;8829;47.932;7.810;2023-02-28T06:23:28;5.17;;;4.77;;
17422;SDS011;8829;47.932;7.810;2023-02-28T06:25:56;4.87;;;4.43;;
17422;SDS011;8829;47.932;7.810;2023-02-28T06:28:24;5.37;;;4.87;;
17422;SDS011;8829;47.932;7.810;2023-02-28T06:30:51;6.27;;;4.67;;
17422;SDS011;8829;47.932;7.810;2023-02-28T06:33:18;8.07;;;4.87;;
17422;SDS011;8829;47.932;7.810;2023-02-28T06:35:46;8.00;;;4.90;;
17422;SDS011;8829;47.932;7.810;2023-02-28T06:38:13;8.40;;;6.37;;
17422;SDS011;8829;47.932;7.810;2023-02-28T06:40:39;8.27;;;6.20;;
17422;SDS011;8829;47.932;7.810;2023-02-28T06:43:07;5.77;;;5.27;;
17422;SDS011;8829;47.932;7.810;2023-02-28T06:45:36;6.07;;;5.47;;
17422;SDS011;8829;47.932;7.810;2023-02-28T06:48:03;5.63;;;5.07;;
17422;SDS011;8829;47.932;7.810;2023-02-28T06:50:30;6.27;;;5.10;;
17422;SDS011;8829;47.932;7.810;2023-02-28T06:52:57;8.57;;;6.17;;
17422;SDS011;8829;47.932;7.810;2023-02-28T06:55:24;5.97;;;5.10;;
17422;SDS011;8829;47.932;7.810;2023-02-28T06:57:50;6.10;;;5.50;;
17422;SDS011;8829;47.932;7.810;2023-02-28T07:00:19;6.13;;;5.20;;
17422;SDS011;8829;47.932;7.810;2023-02-28T07:02:46;5.40;;;5.00;;
17422;SDS011;8829;47.932;7.810;2023-02-28T07:05:13;5.43;;;4.93;;
17422;SDS011;8829;47.932;7.810;2023-02-28T07:07:40;6.17;;;5.13;;
17422;SDS011;8829;47.932;7.810;2023-02-28T07:10:09;11.20;;;4.53;;
17422;SDS011;8829;47.932;7.810;2023-02-28T07:12:37;5.83;;;5.33;;
17422;SDS011;8829;47.932;7.810;2023-02-28T07:15:04;5.30;;;4.80;;
17422;SDS011;8829;47.932;7.810;2023-02-28T07:17:33;5.80;;;5.20;;
17422;SDS011;8829;47.932;7.810;2023-02-28T07:20:00;7.40;;;5.43;;
17422;SDS011;8829;47.932;7.810;2023-02-28T07:22:29;5.63;;;5.13;;
17422;SDS011;8829;47.932;7.810;2023-02-28T07:24:56;5.20;;;4.70;;
17422;SDS011;8829;47.932;7.810;2023-02-28T07:27:22;5.43;;;4.93;;
17422;SDS011;8829;47.932;7.810;2023-02-28T07:29:52;5.03;;;4.53;;
17422;SDS011;8829;47.932;7.810;2023-02-28T07:32:19;6.47;;;5.20;;
17422;SDS011;8829;47.932;7.810;2023-02-28T07:34:47;9.60;;;7.17;;
17422;SDS011;8829;47.932;7.810;2023-02-28T07:37:14;5.47;;;4.97;;
17422;SDS011;8829;47.932;7.810;2023-02-28T07:39:41;8.37;;;5.80;;
17422;SDS011;8829;47.932;7.810;2023-02-28T07:42:08;5.33;;;4.53;;
17422;SDS011;8829;47.932;7.810;2023-02-28T07:44:36;5.23;;;4.73;;
17422;SDS011;8829;47.932;7.810;2023-02-28T07:47:05;5.60;;;5.07;;
17422;SDS011;8829;47.932;7.810;2023-02-28T07:49:32;7.43;;;4.70;;
17422;SDS011;8829;47.932;7.810;2023-02-28T07:52:01;5.50;;;5.00;;
17422;SDS011;8829;47.932;7.810;2023-02-28T07:54:28;4.90;;;4.50;;
17422;SDS011;8829;47.932;7.810;2023-02-28T07:56:55;6.67;;;4.70;;
17422;SDS011;8829;47.932;7.810;2023-02-28T07:59:22;6.37;;;5.03;;
17422;SDS011;8829;47.932;7.810;2023-02-28T08:01:48;9.73;;;6.73;;
17422;SDS011;8829;47.932;7.810;2023-02-28T08:04:15;6.53;;;5.10;;
17422;SDS011;8829;47.932;7.810;2023-02-28T08:06:42;7.40;;;4.90;;
17422;SDS011;8829;47.932;7.810;2023-02-28T08:09:10;6.17;;;5.17;;
17422;SDS011;8829;47.932;7.810;2023-02-28T08:11:37;5.17;;;4.67;;
17422;SDS011;8829;47.932;7.810;2023-02-28T08:14:03;5.90;;;5.00;;
17422;SDS011;8829;47.932;7.810;2023-02-28T08:16:30;7.70;;;4.57;;
17422;SDS011;8829;47.932;7.810;2023-02-28T08:18:57;7.10;;;4.67;;
17422;SDS011;8829;47.932;7.810;2023-02-28T08:21:24;5.60;;;4.97;;
17422;SDS011;8829;47.932;7.810;2023-02-28T08:23:51;5.60;;;4.70;;
17422;SDS011;8829;47.932;7.810;2023-02-28T08:26:19;5.67;;;5.10;;
17422;SDS011;8829;47.932;7.810;2023-02-28T08:28:46;5.27;;;4.77;;
17422;SDS011;8829;47.932;7.810;2023-02-28T08:31:14;6.37;;;5.77;;
17422;SDS011;8829;47.932;7.810;2023-02-28T08:33:42;5.60;;;5.03;;
17422;SDS011;8829;47.932;7.810;2023-02-28T08:36:10;6.67;;;5.07;;
17422;SDS011;8829;47.932;7.810;2023-02-28T08:38:37;5.97;;;4.70;;
17422;SDS011;8829;47.932;7.810;2023-02-28T08:41:05;6.23;;;5.07;;
17422;SDS011;8829;47.932;7.810;2023-02-28T08:43:35;4.97;;;4.53;;
17422;SDS011;8829;47.932;7.810;2023-02-28T08:46:02;5.53;;;5.07;;
17422;SDS011;8829;47.932;7.810;2023-02-28T08:48:30;5.27;;;4.73;;
17422;SDS011;8829;47.932;7.810;2023-02-28T08:51:00;5.90;;;5.30;;
17422;SDS011;8829;47.932;7.810;2023-02-28T08:53:28;9.13;;;7.57;;
17422;SDS011;8829;47.932;7.810;2023-02-28T08:55:55;5.87;;;4.90;;
17422;SDS011;8829;47.932;7.810;2023-02-28T08:58:23;6.13;;;5.13;;
17422;SDS011;8829;47.932;7.810;2023-02-28T09:00:51;6.77;;;5.20;;
17422;SDS011;8829;47.932;7.810;2023-02-28T09:03:18;6.30;;;5.20;;
17422;SDS011;8829;47.932;7.810;2023-02-28T09:05:51;5.20;;;4.70;;
17422;SDS011;8829;47.932;7.810;2023-02-28T09:08:18;6.83;;;5.43;;
17422;SDS011;8829;47.932;7.810;2023-02-28T09:10:45;6.50;;;5.67;;
17422;SDS011;8829;47.932;7.810;2023-02-28T09:13:12;5.90;;;5.30;;
17422;SDS011;8829;47.932;7.810;2023-02-28T09:15:38;5.63;;;5.13;;
17422;SDS011;8829;47.932;7.810;2023-02-28T09:18:07;7.97;;;5.27;;
17422;SDS011;8829;47.932;7.810;2023-02-28T09:20:33;7.33;;;5.27;;
17422;SDS011;8829;47.932;7.810;2023-02-28T09:23:03;4.97;;;4.57;;
17422;SDS011;8829;47.932;7.810;2023-02-28T09:25:29;5.37;;;4.80;;
17422;SDS011;8829;47.932;7.810;2023-02-28T09:27:56;5.80;;;5.17;;
17422;SDS011;8829;47.932;7.810;2023-02-28T09:30:22;4.57;;;4.17;;
17422;SDS011;8829;47.932;7.810;2023-02-28T09:32:49;5.07;;;4.57;;
17422;SDS011;8829;47.932;7.810;2023-02-28T09:35:18;5.63;;;5.13;;
17422;SDS011;8829;47.932;7.810;2023-02-28T09:37:46;4.83;;;4.30;;
17422;SDS011;8829;47.932;7.810;2023-02-28T09:40:13;5.33;;;4.83;;
17422;SDS011;8829;47.932;7.810;2023-02-28T09:42:42;5.73;;;5.00;;
17422;SDS011;8829;47.932;7.810;2023-02-28T09:45:15;5.50;;;4.90;;
17422;SDS011;8829;47.932;7.810;2023-02-28T09:47:48;5.87;;;5.10;;
17422;SDS011;8829;47.932;7.810;2023-02-28T09:50:22;4.73;;;4.33;;
17422;SDS011;8829;47.932;7.810;2023-02-28T09:52:57;7.67;;;5.00;;
17422;SDS011;8829;47.932;7.810;2023-02-28T09:55:26;5.88;;;5.28;;
17422;SDS011;8829;47.932;7.810;2023-02-28T09:57:56;8.13;;;6.00;;
17422;SDS011;8829;47.932;7.810;2023-02-28T10:00:27;6.20;;;5.20;;
17422;SDS011;8829;47.932;7.810;2023-02-28T10:03:02;5.50;;;4.93;;
17422;SDS011;8829;47.932;7.810;2023-02-28T10:05:38;5.63;;;5.10;;
17422;SDS011;8829;47.932;7.810;2023-02-28T10:08:11;4.97;;;4.53;;
17422;SDS011;8829;47.932;7.810;2023-02-28T10:10:41;5.67;;;5.03;;
17422;SDS011;8829;47.932;7.810;2023-02-28T10:13:13;7.27;;;5.20;;
17422;SDS011;8829;47.932;7.810;2023-02-28T10:15:46;4.57;;;4.17;;
17422;SDS011;8829;47.932;7.810;2023-02-28T10:18:16;7.20;;;4.90;;
17422;SDS011;8829;47.932;7.810;2023-02-28T10:20:50;5.63;;;4.70;;
17422;SDS011;8829;47.932;7.810;2023-02-28T10:23:20;4.63;;;4.23;;
17422;SDS011;8829;47.932;7.810;2023-02-28T10:25:50;5.10;;;4.53;;
17422;SDS011;8829;47.932;7.810;2023-02-28T10:28:21;4.47;;;4.10;;
17422;SDS011;8829;47.932;7.810;2023-02-28T10:30:49;5.17;;;3.83;;
17422;SDS011;8829;47.932;7.810;2023-02-28T10:33:18;10.70;;;9.23;;
17422;SDS011;8829;47.932;7.810;2023-02-28T10:35:48;9.30;;;6.43;;
17422;SDS011;8829;47.932;7.810;2023-02-28T10:38:20;4.85;;;4.45;;
17422;SDS011;8829;47.932;7.810;2023-02-28T10:40:48;4.80;;;4.00;;
17422;SDS011;8829;47.932;7.810;2023-02-28T10:43:23;4.63;;;4.23;;
17422;SDS011;8829;47.932;7.810;2023-02-28T10:45:57;5.10;;;4.67;;
17422;SDS011;8829;47.932;7.810;2023-02-28T10:48:29;5.35;;;4.95;;
17422;SDS011;8829;47.932;7.810;2023-02-28T10:50:59;8.30;;;4.80;;
17422;SDS011;8829;47.932;7.810;2023-02-28T10:53:31;5.50;;;4.60;;
17422;SDS011;8829;47.932;7.810;2023-02-28T10:56:01;5.13;;;4.43;;
17422;SDS011;8829;47.932;7.810;2023-02-28T10:58:31;5.07;;;4.57;;
17422;SDS011;8829;47.932;7.810;2023-02-28T11:01:11;6.10;;;4.80;;
17422;SDS011;8829;47.932;7.810;2023-02-28T11:03:40;5.60;;;5.03;;
17422;SDS011;8829;47.932;7.810;2023-02-28T11:06:08;5.57;;;4.83;;
17422;SDS011;8829;47.932;7.810;2023-02-28T11:08:45;4.60;;;4.20;;
17422;SDS011;8829;47.932;7.810;2023-02-28T11:11:13;4.93;;;4.40;;
17422;SDS011;8829;47.932;7.810;2023-02-28T11:13:42;4.77;;;4.33;;
17422;SDS011;8829;47.932;7.810;2023-02-28T11:16:10;4.70;;;4.30;;
17422;SDS011;8829;47.932;7.810;2023-02-28T11:18:40;6.67;;;4.50;;
17422;SDS011;8829;47.932;7.810;2023-02-28T11:21:08;4.97;;;4.53;;
17422;SDS011;8829;47.932;7.810;2023-02-28T11:23:40;4.93;;;4.50;;
17422;SDS011;8829;47.932;7.810;2023-02-28T11:26:09;4.50;;;4.10;;
17422;SDS011;8829;47.932;7.810;2023-02-28T11:28:37;4.83;;;4.33;;
17422;SDS011;8829;47.932;7.810;2023-02-28T11:31:13;4.60;;;4.20;;
17422;SDS011;8829;47.932;7.810;2023-02-28T11:33:45;5.17;;;4.67;;
17422;SDS011;8829;47.932;7.810;2023-02-28T11:36:17;6.23;;;5.13;;
17422;SDS011;8829;47.932;7.810;2023-02-28T11:38:46;5.00;;;4.60;;
17422;SDS011;8829;47.932;7.810;2023-02-28T11:47:03;5.57;;;4.80;;
17422;SDS011;8829;47.932;7.810;2023-02-28T11:49:39;4.90;;;4.50;;
17422;SDS011;8829;47.932;7.810;2023-02-28T11:52:19;5.63;;;5.13;;
17422;SDS011;8829;47.932;7.810;2023-02-28T11:54:53;5.93;;;5.30;;
17422;SDS011;8829;47.932;7.810;2023-02-28T11:57:43;4.93;;;4.53;;
17422;SDS011;8829;47.932;7.810;2023-02-28T12:00:26;5.60;;;5.10;;
17422;SDS011;8829;47.932;7.810;2023-02-28T12:03:08;4.93;;;4.53;;
17422;SDS011;8829;47.932;7.810;2023-02-28T12:05:49;5.82;;;5.22;;
17422;SDS011;8829;47.932;7.810;2023-02-28T12:08:26;9.13;;;5.13;;
17422;SDS011;8829;47.932;7.810;2023-02-28T12:11:04;5.70;;;4.27;;
17422;SDS011;8829;47.932;7.810;2023-02-28T12:13:40;6.10;;;5.33;;
17422;SDS011;8829;47.932;7.810;2023-02-28T12:16:16;5.10;;;4.70;;
17422;SDS011;8829;47.932;7.810;2023-02-28T12:18:59;6.15;;;5.60;;
17422;SDS011;8829;47.932;7.810;2023-02-28T12:21:37;6.23;;;5.63;;
17422;SDS011;8829;47.932;7.810;2023-02-28T12:24:26;6.27;;;5.00;;
17422;SDS011;8829;47.932;7.810;2023-02-28T12:27:05;5.43;;;4.87;;
17422;SDS011;8829;47.932;7.810;2023-02-28T12:29:39;6.10;;;5.50;;
17422;SDS011;8829;47.932;7.810;2023-02-28T12:32:15;5.93;;;4.77;;
17422;SDS011;8829;47.932;7.810;2023-02-28T12:34:47;6.37;;;5.50;;
17422;SDS011;8829;47.932;7.810;2023-02-28T12:37:19;6.17;;;5.57;;
17422;SDS011;8829;47.932;7.810;2023-02-28T12:39:50;6.53;;;5.63;;
17422;SDS011;8829;47.932;7.810;2023-02-28T12:42:24;5.57;;;5.03;;
17422;SDS011;8829;47.932;7.810;2023-02-28T12:44:56;5.60;;;5.00;;
17422;SDS011;8829;47.932;7.810;2023-02-28T12:47:25;6.43;;;5.82;;
17422;SDS011;8829;47.932;7.810;2023-02-28T12:49:53;5.93;;;5.37;;
17422;SDS011;8829;47.932;7.810;2023-02-28T12:52:25;7.03;;;5.20;;
17422;SDS011;8829;47.932;7.810;2023-02-28T12:55:04;7.07;;;5.53;;
17422;SDS011;8829;47.932;7.810;2023-02-28T12:57:38;7.00;;;6.30;;
17422;SDS011;8829;47.932;7.810;2023-02-28T13:00:14;8.40;;;5.93;;
17422;SDS011;8829;47.932;7.810;2023-02-28T13:05:50;5.77;;;5.27;;
17422;SDS011;8829;47.932;7.810;2023-02-28T13:08:39;6.97;;;5.80;;
17422;SDS011;8829;47.932;7.810;2023-02-28T13:11:23;6.13;;;5.10;;
17422;SDS011;8829;47.932;7.810;2023-02-28T13:13:56;6.43;;;5.77;;
17422;SDS011;8829;47.932;7.810;2023-02-28T13:16:26;6.13;;;5.53;;
17422;SDS011;8829;47.932;7.810;2023-02-28T13:18:53;6.97;;;6.03;;
17422;SDS011;8829;47.932;7.810;2023-02-28T13:21:41;6.60;;;5.90;;
17422;SDS011;8829;47.932;7.810;2023-02-28T13:24:10;6.43;;;5.47;;
17422;SDS011;8829;47.932;7.810;2023-02-28T13:29:38;5.87;;;5.23;;
17422;SDS011;8829;47.932;7.810;2023-02-28T13:32:27;6.93;;;5.30;;
17422;SDS011;8829;47.932;7.810;2023-02-28T13:38:17;6.13;;;5.53;;
17422;SDS011;8829;47.932;7.810;2023-02-28T13:40:49;8.80;;;5.60;;
17422;SDS011;8829;47.932;7.810;2023-02-28T13:43:17;4.90;;;4.50;;
17422;SDS011;8829;47.932;7.810;2023-02-28T13:48:37;7.20;;;6.50;;
17422;SDS011;8829;47.932;7.810;2023-02-28T13:57:11;7.80;;;5.53;;
17422;SDS011;8829;47.932;7.810;2023-02-28T13:59:51;6.30;;;5.70;;
17422;SDS011;8829;47.932;7.810;2023-02-28T14:05:39;6.80;;;6.10;;
17422;SDS011;8829;47.932;7.810;2023-02-28T14:08:06;5.60;;;5.10;;
17422;SDS011;8829;47.932;7.810;2023-02-28T14:10:41;8.30;;;5.93;;
17422;SDS011;8829;47.932;7.810;2023-02-28T14:13:12;6.73;;;5.87;;
17422;SDS011;8829;47.932;7.810;2023-02-28T14:16:03;6.80;;;6.10;;
17422;SDS011;8829;47.932;7.810;2023-02-28T14:18:32;6.72;;;5.88;;
17422;SDS011;8829;47.932;7.810;2023-02-28T14:21:02;6.40;;;5.80;;
17422;SDS011;8829;47.932;7.810;2023-02-28T14:23:40;5.73;;;5.17;;
17422;SDS011;8829;47.932;7.810;2023-02-28T14:26:19;8.90;;;5.90;;
17422;SDS011;8829;47.932;7.810;2023-02-28T14:29:02;6.57;;;5.73;;
17422;SDS011;8829;47.932;7.810;2023-02-28T14:31:46;6.80;;;6.13;;
17422;SDS011;8829;47.932;7.810;2023-02-28T14:34:31;6.10;;;5.50;;
17422;SDS011;8829;47.932;7.810;2023-02-28T14:37:08;6.93;;;6.17;;
17422;SDS011;8829;47.932;7.810;2023-02-28T14:39:40;9.10;;;7.13;;
17422;SDS011;8829;47.932;7.810;2023-02-28T14:44:53;8.73;;;6.27;;
17422;SDS011;8829;47.932;7.810;2023-02-28T14:47:23;7.17;;;6.47;;
17422;SDS011;8829;47.932;7.810;2023-02-28T14:49:53;7.03;;;6.37;;
17422;SDS011;8829;47.932;7.810;2023-02-28T14:52:20;6.50;;;5.70;;
17422;SDS011;8829;47.932;7.810;2023-02-28T14:54:51;6.97;;;6.23;;
17422;SDS011;8829;47.932;7.810;2023-02-28T14:57:20;7.95;;;7.15;;
17422;SDS011;8829;47.932;7.810;2023-02-28T14:59:56;6.70;;;5.90;;
17422;SDS011;8829;47.932;7.810;2023-02-28T15:02:25;7.82;;;7.00;;
17422;SDS011;8829;47.932;7.810;2023-02-28T15:04:57;7.70;;;5.93;;
17422;SDS011;8829;47.932;7.810;2023-02-28T15:07:25;7.78;;;6.90;;
17422;SDS011;8829;47.932;7.810;2023-02-28T15:10:08;7.67;;;6.90;;
17422;SDS011;8829;47.932;7.810;2023-02-28T15:12:36;6.97;;;5.80;;
17422;SDS011;8829;47.932;7.810;2023-02-28T15:15:05;6.47;;;5.87;;
17422;SDS011;8829;47.932;7.810;2023-02-28T15:17:34;9.73;;;6.57;;
17422;SDS011;8829;47.932;7.810;2023-02-28T15:20:01;7.63;;;6.80;;
17422;SDS011;8829;47.932;7.810;2023-02-28T15:22:29;6.73;;;6.13;;
17422;SDS011;8829;47.932;7.810;2023-02-28T15:25:01;8.07;;;6.37;;
17422;SDS011;8829;47.932;7.810;2023-02-28T15:27:31;6.70;;;6.00;;
17422;SDS011;8829;47.932;7.810;2023-02-28T15:30:00;9.27;;;7.77;;
17422;SDS011;8829;47.932;7.810;2023-02-28T15:32:32;9.10;;;6.97;;
17422;SDS011;8829;47.932;7.810;2023-02-28T15:37:46;9.00;;;7.27;;
17422;SDS011;8829;47.932;7.810;2023-02-28T15:40:15;11.03;;;8.30;;
17422;SDS011;8829;47.932;7.810;2023-02-28T15:42:57;8.50;;;6.73;;
17422;SDS011;8829;47.932;7.810;2023-02-28T15:45:29;10.67;;;7.77;;
17422;SDS011;8829;47.932;7.810;2023-02-28T15:48:03;9.53;;;7.17;;
17422;SDS011;8829;47.932;7.810;2023-02-28T15:50:31;14.07;;;10.57;;
17422;SDS011;8829;47.932;7.810;2023-02-28T15:52:58;9.97;;;8.37;;
17422;SDS011;8829;47.932;7.810;2023-02-28T15:55:28;9.10;;;8.20;;
17422;SDS011;8829;47.932;7.810;2023-02-28T15:57:56;10.45;;;8.80;;
17422;SDS011;8829;47.932;7.810;2023-02-28T16:00:30;12.63;;;11.07;;